sensor_id;sensor_type;location;lat;lon;timestamp;P1;durP1;ratioP1;P2;durP2;ratioP2
74894;SDS011;63447;49.446;8.666;2023-02-22T00:00:21;11.80;;;7.25;;
74894;SDS011;63447;49.446;8.666;2023-02-22T00:02:53;13.57;;;6.60;;
74894;SDS011;63447;49.446;8.666;2023-02-22T00:05:24;11.77;;;5.72;;
74894;SDS011;63447;49.446;8.666;2023-02-22T00:07:55;12.48;;;6.32;;
74894;SDS011;63447;49.446;8.666;2023-02-22T00:10:22;10.40;;;5.72;;
74894;SDS011;63447;49.446;8.666;2023-02-22T00:12:52;12.15;;;5.82;;
74894;SDS011;63447;49.446;8.666;2023-02-22T00:15:22;12.25;;;5.45;;
74894;SDS011;63447;49.446;8.666;2023-02-22T00:17:52;14.07;;;7.22;;
74894;SDS011;63447;49.446;8.666;2023-02-22T00:20:23;11.15;;;6.47;;
74894;SDS011;63447;49.446;8.666;2023-02-22T00:22:49;11.52;;;6.22;;
74894;SDS011;63447;49.446;8.666;2023-02-22T00:25:21;11.85;;;6.10;;
74894;SDS011;63447;49.446;8.666;2023-02-22T00:27:49;11.50;;;6.55;;
74894;SDS011;63447;49.446;8.666;2023-02-22T00:30:22;13.82;;;6.03;;
74894;SDS011;63447;49.446;8.666;2023-02-22T00:32:51;11.63;;;6.28;;
74894;SDS011;63447;49.446;8.666;2023-02-22T00:35:19;12.23;;;6.80;;
74894;SDS011;63447;49.446;8.666;2023-02-22T00:37:46;11.52;;;6.35;;
74894;SDS011;63447;49.446;8.666;2023-02-22T00:40:17;11.63;;;6.15;;
74894;SDS011;63447;49.446;8.666;2023-02-22T00:42:44;11.05;;;6.10;;
74894;SDS011;63447;49.446;8.666;2023-02-22T00:45:12;12.45;;;6.03;;
74894;SDS011;63447;49.446;8.666;2023-02-22T00:47:42;11.55;;;6.70;;
74894;SDS011;63447;49.446;8.666;2023-02-22T00:50:07;11.93;;;6.53;;
74894;SDS011;63447;49.446;8.666;2023-02-22T00:52:34;12.40;;;6.70;;
74894;SDS011;63447;49.446;8.666;2023-02-22T00:55:00;12.10;;;6.45;;
74894;SDS011;63447;49.446;8.666;2023-02-22T00:57:26;11.50;;;6.25;;
74894;SDS011;63447;49.446;8.666;2023-02-22T00:59:54;14.20;;;6.70;;
74894;SDS011;63447;49.446;8.666;2023-02-22T01:02:21;20.30;;;9.60;;
74894;SDS011;63447;49.446;8.666;2023-02-22T01:04:49;20.33;;;9.13;;
74894;SDS011;63447;49.446;8.666;2023-02-22T01:07:17;15.20;;;6.63;;
74894;SDS011;63447;49.446;8.666;2023-02-22T01:09:42;14.67;;;8.50;;
74894;SDS011;63447;49.446;8.666;2023-02-22T01:12:08;15.70;;;7.93;;
74894;SDS011;63447;49.446;8.666;2023-02-22T01:14:33;17.55;;;8.18;;
74894;SDS011;63447;49.446;8.666;2023-02-22T01:16:59;16.15;;;7.20;;
74894;SDS011;63447;49.446;8.666;2023-02-22T01:19:26;17.40;;;7.90;;
74894;SDS011;63447;49.446;8.666;2023-02-22T01:21:54;14.40;;;7.57;;
74894;SDS011;63447;49.446;8.666;2023-02-22T01:24:22;12.75;;;7.13;;
74894;SDS011;63447;49.446;8.666;2023-02-22T01:26:49;12.50;;;7.13;;
74894;SDS011;63447;49.446;8.666;2023-02-22T01:29:16;12.00;;;6.72;;
74894;SDS011;63447;49.446;8.666;2023-02-22T01:31:49;16.98;;;7.28;;
74894;SDS011;63447;49.446;8.666;2023-02-22T01:34:21;12.38;;;6.97;;
74894;SDS011;63447;49.446;8.666;2023-02-22T01:36:48;14.63;;;7.00;;
74894;SDS011;63447;49.446;8.666;2023-02-22T01:39:13;13.48;;;7.15;;
74894;SDS011;63447;49.446;8.666;2023-02-22T01:41:41;12.65;;;6.20;;
74894;SDS011;63447;49.446;8.666;2023-02-22T01:47:01;13.07;;;6.93;;
74894;SDS011;63447;49.446;8.666;2023-02-22T01:52:04;11.18;;;5.65;;
74894;SDS011;63447;49.446;8.666;2023-02-22T01:54:40;11.40;;;6.13;;
74894;SDS011;63447;49.446;8.666;2023-02-22T01:59:59;14.77;;;6.40;;
74894;SDS011;63447;49.446;8.666;2023-02-22T02:02:36;13.52;;;6.57;;
74894;SDS011;63447;49.446;8.666;2023-02-22T02:05:05;13.35;;;6.75;;
74894;SDS011;63447;49.446;8.666;2023-02-22T02:07:32;12.85;;;6.85;;
74894;SDS011;63447;49.446;8.666;2023-02-22T02:10:00;13.90;;;7.25;;
74894;SDS011;63447;49.446;8.666;2023-02-22T02:12:28;14.38;;;6.78;;
74894;SDS011;63447;49.446;8.666;2023-02-22T02:17:43;13.30;;;6.35;;
74894;SDS011;63447;49.446;8.666;2023-02-22T02:20:31;11.73;;;6.07;;
74894;SDS011;63447;49.446;8.666;2023-02-22T02:37:11;12.57;;;6.57;;
74894;SDS011;63447;49.446;8.666;2023-02-22T02:39:53;13.05;;;6.57;;
74894;SDS011;63447;49.446;8.666;2023-02-22T02:42:27;14.35;;;6.75;;
74894;SDS011;63447;49.446;8.666;2023-02-22T02:45:01;11.57;;;6.18;;
74894;SDS011;63447;49.446;8.666;2023-02-22T02:47:35;10.88;;;5.90;;
74894;SDS011;63447;49.446;8.666;2023-02-22T02:50:09;12.57;;;6.57;;
74894;SDS011;63447;49.446;8.666;2023-02-22T02:52:39;12.65;;;6.47;;
74894;SDS011;63447;49.446;8.666;2023-02-22T02:55:10;11.73;;;6.35;;
74894;SDS011;63447;49.446;8.666;2023-02-22T02:57:37;10.80;;;5.43;;
74894;SDS011;63447;49.446;8.666;2023-02-22T03:00:05;13.30;;;6.47;;
74894;SDS011;63447;49.446;8.666;2023-02-22T03:02:52;11.00;;;6.40;;
74894;SDS011;63447;49.446;8.666;2023-02-22T03:11:05;10.48;;;5.53;;
74894;SDS011;63447;49.446;8.666;2023-02-22T03:16:31;10.77;;;5.75;;
74894;SDS011;63447;49.446;8.666;2023-02-22T03:19:46;10.27;;;5.18;;
74894;SDS011;63447;49.446;8.666;2023-02-22T03:24:49;10.07;;;5.63;;
74894;SDS011;63447;49.446;8.666;2023-02-22T03:30:16;11.05;;;5.82;;
74894;SDS011;63447;49.446;8.666;2023-02-22T03:32:53;9.35;;;5.28;;
74894;SDS011;63447;49.446;8.666;2023-02-22T03:35:24;12.55;;;5.63;;
74894;SDS011;63447;49.446;8.666;2023-02-22T03:37:56;12.20;;;5.50;;
74894;SDS011;63447;49.446;8.666;2023-02-22T03:40:39;10.45;;;5.22;;
74894;SDS011;63447;49.446;8.666;2023-02-22T03:43:14;9.75;;;5.00;;
74894;SDS011;63447;49.446;8.666;2023-02-22T03:45:46;9.77;;;5.32;;
74894;SDS011;63447;49.446;8.666;2023-02-22T03:50:39;10.43;;;5.93;;
74894;SDS011;63447;49.446;8.666;2023-02-22T03:55:31;10.07;;;5.88;;
74894;SDS011;63447;49.446;8.666;2023-02-22T03:57:58;12.90;;;5.93;;
74894;SDS011;63447;49.446;8.666;2023-02-22T04:00:27;11.05;;;5.65;;
74894;SDS011;63447;49.446;8.666;2023-02-22T04:02:54;11.48;;;5.38;;
74894;SDS011;63447;49.446;8.666;2023-02-22T04:07:46;10.05;;;5.50;;
74894;SDS011;63447;49.446;8.666;2023-02-22T04:10:12;9.45;;;5.10;;
74894;SDS011;63447;49.446;8.666;2023-02-22T04:12:41;9.55;;;5.10;;
74894;SDS011;63447;49.446;8.666;2023-02-22T04:17:32;8.48;;;4.60;;
74894;SDS011;63447;49.446;8.666;2023-02-22T04:22:25;9.68;;;5.20;;
74894;SDS011;63447;49.446;8.666;2023-02-22T04:27:17;9.73;;;5.10;;
74894;SDS011;63447;49.446;8.666;2023-02-22T04:29:47;11.88;;;5.57;;
74894;SDS011;63447;49.446;8.666;2023-02-22T04:32:15;11.13;;;5.55;;
74894;SDS011;63447;49.446;8.666;2023-02-22T04:37:06;10.73;;;5.17;;
74894;SDS011;63447;49.446;8.666;2023-02-22T04:41:57;10.40;;;5.32;;
74894;SDS011;63447;49.446;8.666;2023-02-22T04:46:47;9.20;;;5.40;;
74894;SDS011;63447;49.446;8.666;2023-02-22T04:51:38;11.17;;;5.40;;
74894;SDS011;63447;49.446;8.666;2023-02-22T04:54:06;12.35;;;6.10;;
74894;SDS011;63447;49.446;8.666;2023-02-22T04:56:34;13.57;;;5.82;;
74894;SDS011;63447;49.446;8.666;2023-02-22T05:01:27;11.80;;;5.63;;
74894;SDS011;63447;49.446;8.666;2023-02-22T05:03:58;10.95;;;6.32;;
74894;SDS011;63447;49.446;8.666;2023-02-22T05:08:49;13.47;;;6.30;;
74894;SDS011;63447;49.446;8.666;2023-02-22T05:13:39;11.17;;;6.03;;
74894;SDS011;63447;49.446;8.666;2023-02-22T05:16:06;10.35;;;5.63;;
74894;SDS011;63447;49.446;8.666;2023-02-22T05:20:56;9.40;;;5.53;;
74894;SDS011;63447;49.446;8.666;2023-02-22T05:23:24;11.07;;;6.47;;
74894;SDS011;63447;49.446;8.666;2023-02-22T05:28:15;8.70;;;5.00;;
74894;SDS011;63447;49.446;8.666;2023-02-22T05:33:06;9.10;;;5.27;;
74894;SDS011;63447;49.446;8.666;2023-02-22T05:35:32;10.70;;;5.85;;
74894;SDS011;63447;49.446;8.666;2023-02-22T05:40:25;10.95;;;6.05;;
74894;SDS011;63447;49.446;8.666;2023-02-22T05:42:52;11.50;;;5.88;;
74894;SDS011;63447;49.446;8.666;2023-02-22T05:45:18;13.23;;;6.80;;
74894;SDS011;63447;49.446;8.666;2023-02-22T05:47:47;12.43;;;6.70;;
74894;SDS011;63447;49.446;8.666;2023-02-22T05:52:41;12.60;;;6.22;;
74894;SDS011;63447;49.446;8.666;2023-02-22T05:55:10;12.20;;;5.68;;
74894;SDS011;63447;49.446;8.666;2023-02-22T05:57:37;12.35;;;7.05;;
74894;SDS011;63447;49.446;8.666;2023-02-22T06:02:29;10.68;;;6.15;;
74894;SDS011;63447;49.446;8.666;2023-02-22T06:04:57;10.40;;;6.00;;
74894;SDS011;63447;49.446;8.666;2023-02-22T06:07:23;11.60;;;6.32;;
74894;SDS011;63447;49.446;8.666;2023-02-22T06:12:14;14.97;;;6.93;;
74894;SDS011;63447;49.446;8.666;2023-02-22T06:14:42;14.18;;;6.32;;
74894;SDS011;63447;49.446;8.666;2023-02-22T06:17:10;12.13;;;6.22;;
74894;SDS011;63447;49.446;8.666;2023-02-22T06:19:36;19.20;;;6.80;;
74894;SDS011;63447;49.446;8.666;2023-02-22T06:24:29;13.40;;;6.10;;
74894;SDS011;63447;49.446;8.666;2023-02-22T06:29:21;16.08;;;7.30;;
74894;SDS011;63447;49.446;8.666;2023-02-22T06:31:52;14.13;;;6.60;;
74894;SDS011;63447;49.446;8.666;2023-02-22T06:36:43;12.00;;;6.70;;
74894;SDS011;63447;49.446;8.666;2023-02-22T06:41:37;13.25;;;6.70;;
74894;SDS011;63447;49.446;8.666;2023-02-22T06:46:28;14.88;;;7.63;;
74894;SDS011;63447;49.446;8.666;2023-02-22T06:51:18;13.45;;;7.35;;
74894;SDS011;63447;49.446;8.666;2023-02-22T06:56:09;13.43;;;7.23;;
74894;SDS011;63447;49.446;8.666;2023-02-22T07:01:00;16.20;;;8.47;;
74894;SDS011;63447;49.446;8.666;2023-02-22T07:03:30;12.13;;;7.07;;
74894;SDS011;63447;49.446;8.666;2023-02-22T07:05:55;12.30;;;6.93;;
74894;SDS011;63447;49.446;8.666;2023-02-22T07:10:46;13.47;;;7.60;;
74894;SDS011;63447;49.446;8.666;2023-02-22T07:13:14;12.30;;;7.68;;
74894;SDS011;63447;49.446;8.666;2023-02-22T07:18:06;15.60;;;7.32;;
74894;SDS011;63447;49.446;8.666;2023-02-22T07:22:59;13.57;;;6.65;;
74894;SDS011;63447;49.446;8.666;2023-02-22T07:25:25;14.13;;;7.13;;
74894;SDS011;63447;49.446;8.666;2023-02-22T07:30:18;15.45;;;7.80;;
74894;SDS011;63447;49.446;8.666;2023-02-22T07:32:49;13.95;;;7.53;;
74894;SDS011;63447;49.446;8.666;2023-02-22T07:37:44;16.75;;;8.25;;
74894;SDS011;63447;49.446;8.666;2023-02-22T07:40:12;14.32;;;8.20;;
74894;SDS011;63447;49.446;8.666;2023-02-22T07:45:19;12.95;;;7.10;;
74894;SDS011;63447;49.446;8.666;2023-02-22T07:47:45;13.52;;;7.22;;
74894;SDS011;63447;49.446;8.666;2023-02-22T07:50:12;19.38;;;9.15;;
74894;SDS011;63447;49.446;8.666;2023-02-22T07:52:48;15.40;;;7.88;;
74894;SDS011;63447;49.446;8.666;2023-02-22T07:55:16;14.25;;;7.63;;
74894;SDS011;63447;49.446;8.666;2023-02-22T07:57:49;16.35;;;8.52;;
74894;SDS011;63447;49.446;8.666;2023-02-22T08:00:36;24.23;;;12.23;;
74894;SDS011;63447;49.446;8.666;2023-02-22T08:03:06;16.13;;;8.45;;
74894;SDS011;63447;49.446;8.666;2023-02-22T08:05:36;14.55;;;8.25;;
74894;SDS011;63447;49.446;8.666;2023-02-22T08:08:09;14.90;;;7.45;;
74894;SDS011;63447;49.446;8.666;2023-02-22T08:10:39;14.77;;;7.75;;
74894;SDS011;63447;49.446;8.666;2023-02-22T08:13:07;14.65;;;7.57;;
74894;SDS011;63447;49.446;8.666;2023-02-22T08:15:35;13.80;;;7.43;;
74894;SDS011;63447;49.446;8.666;2023-02-22T08:18:05;15.85;;;8.30;;
74894;SDS011;63447;49.446;8.666;2023-02-22T08:20:33;14.32;;;7.88;;
74894;SDS011;63447;49.446;8.666;2023-02-22T08:22:59;14.90;;;8.23;;
74894;SDS011;63447;49.446;8.666;2023-02-22T08:25:28;19.10;;;8.30;;
74894;SDS011;63447;49.446;8.666;2023-02-22T08:27:59;16.70;;;8.80;;
74894;SDS011;63447;49.446;8.666;2023-02-22T08:30:29;16.98;;;9.02;;
74894;SDS011;63447;49.446;8.666;2023-02-22T08:32:56;17.40;;;10.45;;
74894;SDS011;63447;49.446;8.666;2023-02-22T08:35:22;17.73;;;9.32;;
74894;SDS011;63447;49.446;8.666;2023-02-22T08:37:53;18.23;;;10.63;;
74894;SDS011;63447;49.446;8.666;2023-02-22T08:40:23;17.23;;;9.55;;
74894;SDS011;63447;49.446;8.666;2023-02-22T08:42:55;16.73;;;9.25;;
74894;SDS011;63447;49.446;8.666;2023-02-22T08:45:21;16.90;;;9.07;;
74894;SDS011;63447;49.446;8.666;2023-02-22T08:47:47;17.98;;;9.55;;
74894;SDS011;63447;49.446;8.666;2023-02-22T08:50:20;15.48;;;9.38;;
74894;SDS011;63447;49.446;8.666;2023-02-22T08:52:58;14.90;;;9.55;;
74894;SDS011;63447;49.446;8.666;2023-02-22T08:55:25;14.55;;;9.32;;
74894;SDS011;63447;49.446;8.666;2023-02-22T08:57:56;15.02;;;9.07;;
74894;SDS011;63447;49.446;8.666;2023-02-22T09:00:24;15.82;;;9.15;;
74894;SDS011;63447;49.446;8.666;2023-02-22T09:02:50;16.35;;;8.38;;
74894;SDS011;63447;49.446;8.666;2023-02-22T09:05:16;14.57;;;8.93;;
74894;SDS011;63447;49.446;8.666;2023-02-22T09:07:42;15.25;;;8.63;;
74894;SDS011;63447;49.446;8.666;2023-02-22T09:10:15;13.93;;;8.95;;
74894;SDS011;63447;49.446;8.666;2023-02-22T09:12:43;14.70;;;9.38;;
74894;SDS011;63447;49.446;8.666;2023-02-22T09:15:09;15.77;;;7.93;;
74894;SDS011;63447;49.446;8.666;2023-02-22T09:17:35;13.85;;;8.75;;
74894;SDS011;63447;49.446;8.666;2023-02-22T09:20:04;15.73;;;8.93;;
74894;SDS011;63447;49.446;8.666;2023-02-22T09:22:36;14.80;;;8.40;;
74894;SDS011;63447;49.446;8.666;2023-02-22T09:25:05;14.93;;;8.45;;
74894;SDS011;63447;49.446;8.666;2023-02-22T09:27:33;14.98;;;8.25;;
74894;SDS011;63447;49.446;8.666;2023-02-22T09:30:01;13.73;;;8.50;;
74894;SDS011;63447;49.446;8.666;2023-02-22T09:32:27;15.70;;;8.48;;
74894;SDS011;63447;49.446;8.666;2023-02-22T09:34:52;14.30;;;7.78;;
74894;SDS011;63447;49.446;8.666;2023-02-22T09:37:18;12.68;;;7.78;;
74894;SDS011;63447;49.446;8.666;2023-02-22T09:39:44;13.10;;;7.22;;
74894;SDS011;63447;49.446;8.666;2023-02-22T09:42:29;14.90;;;7.93;;
74894;SDS011;63447;49.446;8.666;2023-02-22T09:45:09;12.98;;;7.90;;
74894;SDS011;63447;49.446;8.666;2023-02-22T09:47:51;14.07;;;8.25;;
74894;SDS011;63447;49.446;8.666;2023-02-22T09:50:24;16.75;;;7.28;;
74894;SDS011;63447;49.446;8.666;2023-02-22T09:52:54;13.30;;;8.07;;
74894;SDS011;63447;49.446;8.666;2023-02-22T09:58:02;16.05;;;7.97;;
74894;SDS011;63447;49.446;8.666;2023-02-22T10:03:24;14.35;;;8.73;;
74894;SDS011;63447;49.446;8.666;2023-02-22T10:06:02;14.82;;;8.30;;
74894;SDS011;63447;49.446;8.666;2023-02-22T10:08:33;12.40;;;7.68;;
74894;SDS011;63447;49.446;8.666;2023-02-22T10:16:22;13.07;;;8.60;;
74894;SDS011;63447;49.446;8.666;2023-02-22T10:19:03;14.82;;;8.80;;
74894;SDS011;63447;49.446;8.666;2023-02-22T10:26:50;15.25;;;8.50;;
74894;SDS011;63447;49.446;8.666;2023-02-22T10:29:28;15.35;;;8.27;;
74894;SDS011;63447;49.446;8.666;2023-02-22T10:31:59;12.25;;;8.32;;
74894;SDS011;63447;49.446;8.666;2023-02-22T10:34:37;15.80;;;8.35;;
74894;SDS011;63447;49.446;8.666;2023-02-22T10:40:17;12.30;;;8.07;;
74894;SDS011;63447;49.446;8.666;2023-02-22T10:42:46;14.27;;;8.40;;
74894;SDS011;63447;49.446;8.666;2023-02-22T10:45:29;15.43;;;9.10;;
74894;SDS011;63447;49.446;8.666;2023-02-22T10:47:57;16.45;;;8.93;;
74894;SDS011;63447;49.446;8.666;2023-02-22T10:50:29;13.15;;;7.75;;
74894;SDS011;63447;49.446;8.666;2023-02-22T10:52:55;14.15;;;8.68;;
74894;SDS011;63447;49.446;8.666;2023-02-22T10:55:21;15.65;;;7.97;;
74894;SDS011;63447;49.446;8.666;2023-02-22T10:57:49;15.15;;;8.95;;
74894;SDS011;63447;49.446;8.666;2023-02-22T11:03:04;14.65;;;8.77;;
74894;SDS011;63447;49.446;8.666;2023-02-22T11:05:39;13.25;;;7.40;;
74894;SDS011;63447;49.446;8.666;2023-02-22T11:10:46;14.32;;;8.38;;
74894;SDS011;63447;49.446;8.666;2023-02-22T11:13:16;12.13;;;7.80;;
74894;SDS011;63447;49.446;8.666;2023-02-22T11:15:49;11.85;;;7.32;;
74894;SDS011;63447;49.446;8.666;2023-02-22T11:18:29;11.65;;;6.68;;
74894;SDS011;63447;49.446;8.666;2023-02-22T11:21:01;12.32;;;7.22;;
74894;SDS011;63447;49.446;8.666;2023-02-22T11:23:32;14.00;;;7.85;;
74894;SDS011;63447;49.446;8.666;2023-02-22T11:28:41;16.20;;;8.98;;
74894;SDS011;63447;49.446;8.666;2023-02-22T11:31:26;14.90;;;8.52;;
74894;SDS011;63447;49.446;8.666;2023-02-22T11:33:54;18.75;;;9.93;;
74894;SDS011;63447;49.446;8.666;2023-02-22T11:36:32;13.77;;;8.05;;
74894;SDS011;63447;49.446;8.666;2023-02-22T11:39:27;14.88;;;7.95;;
74894;SDS011;63447;49.446;8.666;2023-02-22T11:41:58;13.80;;;7.72;;
74894;SDS011;63447;49.446;8.666;2023-02-22T11:44:44;13.77;;;7.88;;
74894;SDS011;63447;49.446;8.666;2023-02-22T11:47:12;14.98;;;8.25;;
74894;SDS011;63447;49.446;8.666;2023-02-22T11:49:38;13.48;;;8.07;;
74894;SDS011;63447;49.446;8.666;2023-02-22T11:55:09;13.98;;;6.97;;
74894;SDS011;63447;49.446;8.666;2023-02-22T12:01:04;13.30;;;8.05;;
74894;SDS011;63447;49.446;8.666;2023-02-22T12:03:52;13.20;;;8.60;;
74894;SDS011;63447;49.446;8.666;2023-02-22T12:10:18;12.75;;;8.25;;
74894;SDS011;63447;49.446;8.666;2023-02-22T12:15:57;15.95;;;8.13;;
74894;SDS011;63447;49.446;8.666;2023-02-22T12:18:20;13.00;;;8.07;;
74894;SDS011;63447;49.446;8.666;2023-02-22T12:21:15;14.23;;;8.73;;
74894;SDS011;63447;49.446;8.666;2023-02-22T12:26:16;14.68;;;8.38;;
74894;SDS011;63447;49.446;8.666;2023-02-22T12:31:53;13.95;;;8.55;;
74894;SDS011;63447;49.446;8.666;2023-02-22T12:34:37;14.48;;;8.07;;
74894;SDS011;63447;49.446;8.666;2023-02-22T12:37:15;14.15;;;8.45;;
74894;SDS011;63447;49.446;8.666;2023-02-22T12:39:48;14.35;;;9.48;;
74894;SDS011;63447;49.446;8.666;2023-02-22T12:48:30;11.68;;;7.75;;
74894;SDS011;63447;49.446;8.666;2023-02-22T12:51:01;12.73;;;8.63;;
74894;SDS011;63447;49.446;8.666;2023-02-22T12:53:37;13.95;;;8.48;;
74894;SDS011;63447;49.446;8.666;2023-02-22T12:56:14;14.88;;;8.57;;
74894;SDS011;63447;49.446;8.666;2023-02-22T12:58:54;13.90;;;8.32;;
74894;SDS011;63447;49.446;8.666;2023-02-22T13:01:41;15.82;;;8.30;;
74894;SDS011;63447;49.446;8.666;2023-02-22T13:04:10;11.75;;;8.25;;
74894;SDS011;63447;49.446;8.666;2023-02-22T13:12:08;14.77;;;9.07;;
74894;SDS011;63447;49.446;8.666;2023-02-22T13:14:53;13.93;;;9.07;;
74894;SDS011;63447;49.446;8.666;2023-02-22T13:30:56;15.68;;;9.60;;
74894;SDS011;63447;49.446;8.666;2023-02-22T13:33:33;13.57;;;9.15;;
74894;SDS011;63447;49.446;8.666;2023-02-22T13:36:23;15.85;;;9.48;;
74894;SDS011;63447;49.446;8.666;2023-02-22T13:41:58;13.35;;;7.88;;
74894;SDS011;63447;49.446;8.666;2023-02-22T13:44:40;14.88;;;9.48;;
74894;SDS011;63447;49.446;8.666;2023-02-22T13:47:42;15.10;;;8.80;;
74894;SDS011;63447;49.446;8.666;2023-02-22T13:53:02;15.25;;;9.77;;
74894;SDS011;63447;49.446;8.666;2023-02-22T13:55:33;17.15;;;9.82;;
74894;SDS011;63447;49.446;8.666;2023-02-22T13:58:02;14.82;;;9.50;;
74894;SDS011;63447;49.446;8.666;2023-02-22T14:13:10;19.67;;;9.48;;
74894;SDS011;63447;49.446;8.666;2023-02-22T14:16:14;16.77;;;9.63;;
74894;SDS011;63447;49.446;8.666;2023-02-22T14:18:22;13.50;;;8.55;;
74894;SDS011;63447;49.446;8.666;2023-02-22T14:21:04;14.75;;;8.63;;
74894;SDS011;63447;49.446;8.666;2023-02-22T14:23:36;14.52;;;8.32;;
74894;SDS011;63447;49.446;8.666;2023-02-22T14:31:14;14.13;;;8.37;;
74894;SDS011;63447;49.446;8.666;2023-02-22T14:33:56;15.00;;;8.57;;
74894;SDS011;63447;49.446;8.666;2023-02-22T14:36:32;15.50;;;7.97;;
74894;SDS011;63447;49.446;8.666;2023-02-22T14:39:06;12.63;;;8.30;;
74894;SDS011;63447;49.446;8.666;2023-02-22T14:41:41;15.70;;;8.55;;
74894;SDS011;63447;49.446;8.666;2023-02-22T14:44:10;15.23;;;8.63;;
74894;SDS011;63447;49.446;8.666;2023-02-22T14:46:40;13.05;;;8.00;;
74894;SDS011;63447;49.446;8.666;2023-02-22T14:49:14;16.33;;;8.30;;
74894;SDS011;63447;49.446;8.666;2023-02-22T14:51:50;13.40;;;8.63;;
74894;SDS011;63447;49.446;8.666;2023-02-22T14:54:35;15.27;;;8.50;;
74894;SDS011;63447;49.446;8.666;2023-02-22T14:57:31;14.05;;;8.07;;
74894;SDS011;63447;49.446;8.666;2023-02-22T15:00:22;13.80;;;8.75;;
74894;SDS011;63447;49.446;8.666;2023-02-22T15:02:55;12.70;;;8.05;;
74894;SDS011;63447;49.446;8.666;2023-02-22T15:05:23;14.00;;;7.80;;
74894;SDS011;63447;49.446;8.666;2023-02-22T15:07:52;16.23;;;7.38;;
74894;SDS011;63447;49.446;8.666;2023-02-22T15:10:22;12.05;;;7.10;;
74894;SDS011;63447;49.446;8.666;2023-02-22T15:13:03;12.95;;;7.05;;
74894;SDS011;63447;49.446;8.666;2023-02-22T15:15:34;13.52;;;7.07;;
74894;SDS011;63447;49.446;8.666;2023-02-22T15:18:01;12.80;;;7.03;;
74894;SDS011;63447;49.446;8.666;2023-02-22T15:20:28;13.30;;;7.50;;
74894;SDS011;63447;49.446;8.666;2023-02-22T15:22:57;15.15;;;7.78;;
74894;SDS011;63447;49.446;8.666;2023-02-22T15:25:26;14.20;;;7.22;;
74894;SDS011;63447;49.446;8.666;2023-02-22T15:27:54;14.23;;;7.50;;
74894;SDS011;63447;49.446;8.666;2023-02-22T15:30:26;13.77;;;7.50;;
74894;SDS011;63447;49.446;8.666;2023-02-22T15:32:54;11.85;;;6.35;;
74894;SDS011;63447;49.446;8.666;2023-02-22T15:37:56;13.50;;;7.25;;
74894;SDS011;63447;49.446;8.666;2023-02-22T15:40:30;15.18;;;7.05;;
74894;SDS011;63447;49.446;8.666;2023-02-22T15:43:04;13.85;;;7.00;;
74894;SDS011;63447;49.446;8.666;2023-02-22T15:45:41;13.90;;;7.18;;
74894;SDS011;63447;49.446;8.666;2023-02-22T15:48:09;12.63;;;7.53;;
74894;SDS011;63447;49.446;8.666;2023-02-22T15:50:35;15.00;;;6.85;;
74894;SDS011;63447;49.446;8.666;2023-02-22T15:53:02;15.40;;;7.45;;
74894;SDS011;63447;49.446;8.666;2023-02-22T15:55:31;14.77;;;7.00;;
74894;SDS011;63447;49.446;8.666;2023-02-22T15:57:58;15.55;;;7.15;;
74894;SDS011;63447;49.446;8.666;2023-02-22T16:00:31;15.85;;;7.50;;
74894;SDS011;63447;49.446;8.666;2023-02-22T16:03:19;16.73;;;7.55;;
74894;SDS011;63447;49.446;8.666;2023-02-22T16:05:54;13.93;;;6.82;;
74894;SDS011;63447;49.446;8.666;2023-02-22T16:08:21;16.23;;;7.30;;
74894;SDS011;63447;49.446;8.666;2023-02-22T16:11:09;14.75;;;7.63;;
74894;SDS011;63447;49.446;8.666;2023-02-22T16:13:39;14.20;;;7.10;;
74894;SDS011;63447;49.446;8.666;2023-02-22T16:18:46;14.30;;;7.05;;
74894;SDS011;63447;49.446;8.666;2023-02-22T16:21:15;13.13;;;7.38;;
74894;SDS011;63447;49.446;8.666;2023-02-22T16:23:50;12.38;;;6.88;;
74894;SDS011;63447;49.446;8.666;2023-02-22T16:31:33;14.43;;;7.18;;
74894;SDS011;63447;49.446;8.666;2023-02-22T16:34:01;15.13;;;7.25;;
74894;SDS011;63447;49.446;8.666;2023-02-22T16:36:36;13.98;;;7.40;;
74894;SDS011;63447;49.446;8.666;2023-02-22T16:39:07;24.80;;;14.18;;
74894;SDS011;63447;49.446;8.666;2023-02-22T16:41:40;17.35;;;8.27;;
74894;SDS011;63447;49.446;8.666;2023-02-22T16:44:07;15.90;;;7.95;;
74894;SDS011;63447;49.446;8.666;2023-02-22T16:46:34;15.55;;;7.82;;
74894;SDS011;63447;49.446;8.666;2023-02-22T16:49:01;14.18;;;7.82;;
74894;SDS011;63447;49.446;8.666;2023-02-22T16:52:12;18.90;;;8.23;;
74894;SDS011;63447;49.446;8.666;2023-02-22T16:54:38;14.75;;;7.38;;
74894;SDS011;63447;49.446;8.666;2023-02-22T16:57:09;18.80;;;8.45;;
74894;SDS011;63447;49.446;8.666;2023-02-22T16:59:43;17.20;;;7.95;;
74894;SDS011;63447;49.446;8.666;2023-02-22T17:02:12;21.23;;;7.80;;
74894;SDS011;63447;49.446;8.666;2023-02-22T17:04:39;15.90;;;8.05;;
74894;SDS011;63447;49.446;8.666;2023-02-22T17:07:16;15.73;;;7.53;;
74894;SDS011;63447;49.446;8.666;2023-02-22T17:09:44;16.45;;;7.07;;
74894;SDS011;63447;49.446;8.666;2023-02-22T17:12:14;16.00;;;8.02;;
74894;SDS011;63447;49.446;8.666;2023-02-22T17:14:40;16.48;;;7.68;;
74894;SDS011;63447;49.446;8.666;2023-02-22T17:17:09;18.42;;;8.50;;
74894;SDS011;63447;49.446;8.666;2023-02-22T17:19:37;15.75;;;8.02;;
74894;SDS011;63447;49.446;8.666;2023-02-22T17:22:02;15.20;;;8.02;;
74894;SDS011;63447;49.446;8.666;2023-02-22T17:24:30;15.98;;;7.47;;
74894;SDS011;63447;49.446;8.666;2023-02-22T17:26:58;16.35;;;8.15;;
74894;SDS011;63447;49.446;8.666;2023-02-22T17:29:24;18.30;;;8.75;;
74894;SDS011;63447;49.446;8.666;2023-02-22T17:31:52;24.60;;;13.10;;
74894;SDS011;63447;49.446;8.666;2023-02-22T17:34:20;24.60;;;14.20;;
74894;SDS011;63447;49.446;8.666;2023-02-22T17:36:48;16.67;;;9.25;;
74894;SDS011;63447;49.446;8.666;2023-02-22T17:39:13;16.65;;;7.65;;
74894;SDS011;63447;49.446;8.666;2023-02-22T17:41:42;13.18;;;7.55;;
74894;SDS011;63447;49.446;8.666;2023-02-22T17:44:07;15.25;;;8.32;;
74894;SDS011;63447;49.446;8.666;2023-02-22T17:46:34;15.02;;;7.95;;
74894;SDS011;63447;49.446;8.666;2023-02-22T17:49:00;14.77;;;7.82;;
74894;SDS011;63447;49.446;8.666;2023-02-22T17:51:27;14.00;;;7.78;;
74894;SDS011;63447;49.446;8.666;2023-02-22T17:53:52;14.60;;;7.43;;
74894;SDS011;63447;49.446;8.666;2023-02-22T17:56:18;17.33;;;7.70;;
74894;SDS011;63447;49.446;8.666;2023-02-22T17:58:43;18.38;;;8.30;;
74894;SDS011;63447;49.446;8.666;2023-02-22T18:01:23;14.45;;;8.27;;
74894;SDS011;63447;49.446;8.666;2023-02-22T18:03:53;13.88;;;8.45;;
74894;SDS011;63447;49.446;8.666;2023-02-22T18:06:20;17.88;;;9.50;;
74894;SDS011;63447;49.446;8.666;2023-02-22T18:08:52;15.38;;;8.80;;
74894;SDS011;63447;49.446;8.666;2023-02-22T18:11:19;15.60;;;8.43;;
74894;SDS011;63447;49.446;8.666;2023-02-22T18:13:49;16.95;;;8.48;;
74894;SDS011;63447;49.446;8.666;2023-02-22T18:16:16;15.88;;;9.35;;
74894;SDS011;63447;49.446;8.666;2023-02-22T18:18:44;18.90;;;9.88;;
74894;SDS011;63447;49.446;8.666;2023-02-22T18:21:09;15.13;;;8.53;;
74894;SDS011;63447;49.446;8.666;2023-02-22T18:23:39;18.45;;;9.18;;
74894;SDS011;63447;49.446;8.666;2023-02-22T18:26:04;15.97;;;8.80;;
74894;SDS011;63447;49.446;8.666;2023-02-22T18:28:30;18.02;;;9.70;;
74894;SDS011;63447;49.446;8.666;2023-02-22T18:30:55;18.30;;;9.75;;
74894;SDS011;63447;49.446;8.666;2023-02-22T18:33:23;19.75;;;10.57;;
74894;SDS011;63447;49.446;8.666;2023-02-22T18:35:51;18.85;;;10.15;;
74894;SDS011;63447;49.446;8.666;2023-02-22T18:38:18;21.25;;;11.02;;
74894;SDS011;63447;49.446;8.666;2023-02-22T18:40:48;21.50;;;11.90;;